sensor_id;sensor_type;location;lat;lon;timestamp;P1;durP1;ratioP1;P2;durP2;ratioP2
40827;SDS011;26549;50.918;5.338;2022-12-18T00:01:18;56.00;;;28.05;;
40827;SDS011;26549;50.918;5.338;2022-12-18T00:03:53;43.20;;;23.90;;
40827;SDS011;26549;50.918;5.338;2022-12-18T00:06:20;58.10;;;24.70;;
40827;SDS011;26549;50.918;5.338;2022-12-18T00:08:47;52.25;;;26.70;;
40827;SDS011;26549;50.918;5.338;2022-12-18T00:11:15;50.70;;;23.13;;
40827;SDS011;26549;50.918;5.338;2022-12-18T00:13:49;52.33;;;24.55;;
40827;SDS011;26549;50.918;5.338;2022-12-18T00:16:17;56.28;;;25.63;;
40827;SDS011;26549;50.918;5.338;2022-12-18T00:18:55;50.13;;;27.15;;
40827;SDS011;26549;50.918;5.338;2022-12-18T00:21:28;49.83;;;24.98;;
40827;SDS011;26549;50.918;5.338;2022-12-18T00:23:55;53.95;;;24.80;;
40827;SDS011;26549;50.918;5.338;2022-12-18T00:26:25;52.35;;;26.48;;
40827;SDS011;26549;50.918;5.338;2022-12-18T00:28:54;56.10;;;25.40;;
40827;SDS011;26549;50.918;5.338;2022-12-18T00:31:22;55.55;;;27.33;;
40827;SDS011;26549;50.918;5.338;2022-12-18T00:33:49;54.40;;;24.40;;
40827;SDS011;26549;50.918;5.338;2022-12-18T00:36:16;48.47;;;26.20;;
40827;SDS011;26549;50.918;5.338;2022-12-18T00:38:46;45.20;;;24.08;;
40827;SDS011;26549;50.918;5.338;2022-12-18T00:41:13;53.53;;;25.42;;
40827;SDS011;26549;50.918;5.338;2022-12-18T00:44:00;49.05;;;22.75;;
40827;SDS011;26549;50.918;5.338;2022-12-18T00:46:28;52.78;;;24.88;;
40827;SDS011;26549;50.918;5.338;2022-12-18T00:48:54;48.83;;;23.50;;
40827;SDS011;26549;50.918;5.338;2022-12-18T00:51:19;52.97;;;25.40;;
40827;SDS011;26549;50.918;5.338;2022-12-18T00:53:45;49.58;;;23.30;;
40827;SDS011;26549;50.918;5.338;2022-12-18T00:56:12;52.75;;;25.65;;
40827;SDS011;26549;50.918;5.338;2022-12-18T00:58:37;42.03;;;22.30;;
40827;SDS011;26549;50.918;5.338;2022-12-18T01:01:04;45.85;;;23.90;;
40827;SDS011;26549;50.918;5.338;2022-12-18T01:03:31;46.00;;;23.92;;
40827;SDS011;26549;50.918;5.338;2022-12-18T01:05:58;48.30;;;22.52;;
40827;SDS011;26549;50.918;5.338;2022-12-18T01:08:25;50.35;;;22.65;;
40827;SDS011;26549;50.918;5.338;2022-12-18T01:10:52;59.88;;;26.17;;
40827;SDS011;26549;50.918;5.338;2022-12-18T01:13:18;45.70;;;23.85;;
40827;SDS011;26549;50.918;5.338;2022-12-18T01:15:48;44.63;;;22.13;;
40827;SDS011;26549;50.918;5.338;2022-12-18T01:18:14;44.00;;;24.00;;
40827;SDS011;26549;50.918;5.338;2022-12-18T01:20:41;48.85;;;23.27;;
40827;SDS011;26549;50.918;5.338;2022-12-18T01:23:07;52.30;;;24.60;;
40827;SDS011;26549;50.918;5.338;2022-12-18T01:25:35;53.97;;;25.83;;
40827;SDS011;26549;50.918;5.338;2022-12-18T01:28:02;53.63;;;27.40;;
40827;SDS011;26549;50.918;5.338;2022-12-18T01:30:28;48.45;;;25.55;;
40827;SDS011;26549;50.918;5.338;2022-12-18T01:32:57;56.60;;;25.48;;
40827;SDS011;26549;50.918;5.338;2022-12-18T01:35:22;50.53;;;22.80;;
40827;SDS011;26549;50.918;5.338;2022-12-18T01:37:53;52.47;;;26.25;;
40827;SDS011;26549;50.918;5.338;2022-12-18T01:40:20;45.67;;;23.13;;
40827;SDS011;26549;50.918;5.338;2022-12-18T01:42:52;55.50;;;25.52;;
40827;SDS011;26549;50.918;5.338;2022-12-18T01:55:29;52.30;;;24.77;;
40827;SDS011;26549;50.918;5.338;2022-12-18T01:57:57;39.78;;;22.77;;
40827;SDS011;26549;50.918;5.338;2022-12-18T02:00:25;56.28;;;25.30;;
40827;SDS011;26549;50.918;5.338;2022-12-18T02:02:52;47.65;;;23.27;;
40827;SDS011;26549;50.918;5.338;2022-12-18T02:08:21;41.80;;;21.77;;
40827;SDS011;26549;50.918;5.338;2022-12-18T02:11:04;48.50;;;25.15;;
40827;SDS011;26549;50.918;5.338;2022-12-18T02:13:58;43.03;;;22.55;;
40827;SDS011;26549;50.918;5.338;2022-12-18T02:16:33;45.17;;;23.55;;
40827;SDS011;26549;50.918;5.338;2022-12-18T02:24:54;52.05;;;24.60;;
40827;SDS011;26549;50.918;5.338;2022-12-18T02:27:39;45.33;;;23.42;;
40827;SDS011;26549;50.918;5.338;2022-12-18T02:30:11;43.67;;;23.20;;
40827;SDS011;26549;50.918;5.338;2022-12-18T02:32:39;46.13;;;23.70;;
40827;SDS011;26549;50.918;5.338;2022-12-18T02:35:11;46.15;;;23.50;;
40827;SDS011;26549;50.918;5.338;2022-12-18T02:37:43;49.75;;;24.38;;
40827;SDS011;26549;50.918;5.338;2022-12-18T02:40:11;42.58;;;21.45;;
40827;SDS011;26549;50.918;5.338;2022-12-18T02:42:39;44.85;;;22.23;;
40827;SDS011;26549;50.918;5.338;2022-12-18T02:45:05;46.53;;;25.52;;
40827;SDS011;26549;50.918;5.338;2022-12-18T02:47:32;39.72;;;20.42;;
40827;SDS011;26549;50.918;5.338;2022-12-18T02:50:13;43.92;;;20.17;;
40827;SDS011;26549;50.918;5.338;2022-12-18T02:53:01;44.08;;;22.67;;
40827;SDS011;26549;50.918;5.338;2022-12-18T02:55:56;42.80;;;22.30;;
40827;SDS011;26549;50.918;5.338;2022-12-18T03:01:34;35.42;;;20.20;;
40827;SDS011;26549;50.918;5.338;2022-12-18T03:04:28;45.17;;;22.48;;
40827;SDS011;26549;50.918;5.338;2022-12-18T03:07:02;49.28;;;21.80;;
40827;SDS011;26549;50.918;5.338;2022-12-18T03:09:33;47.20;;;23.45;;
40827;SDS011;26549;50.918;5.338;2022-12-18T03:12:14;38.85;;;20.27;;
40827;SDS011;26549;50.918;5.338;2022-12-18T03:17:36;48.85;;;24.00;;
40827;SDS011;26549;50.918;5.338;2022-12-18T03:20:07;37.15;;;19.90;;
40827;SDS011;26549;50.918;5.338;2022-12-18T03:22:37;36.78;;;20.02;;
40827;SDS011;26549;50.918;5.338;2022-12-18T03:25:06;39.10;;;19.35;;
40827;SDS011;26549;50.918;5.338;2022-12-18T03:27:36;43.00;;;20.73;;
40827;SDS011;26549;50.918;5.338;2022-12-18T03:30:07;42.63;;;21.27;;
40827;SDS011;26549;50.918;5.338;2022-12-18T03:32:47;42.35;;;19.13;;
40827;SDS011;26549;50.918;5.338;2022-12-18T03:35:30;36.75;;;19.10;;
40827;SDS011;26549;50.918;5.338;2022-12-18T03:38:00;42.95;;;20.45;;
40827;SDS011;26549;50.918;5.338;2022-12-18T03:40:31;44.28;;;20.38;;
40827;SDS011;26549;50.918;5.338;2022-12-18T03:43:19;33.95;;;18.50;;
40827;SDS011;26549;50.918;5.338;2022-12-18T03:46:06;38.08;;;20.33;;
40827;SDS011;26549;50.918;5.338;2022-12-18T03:48:48;37.30;;;19.65;;
40827;SDS011;26549;50.918;5.338;2022-12-18T03:51:19;39.95;;;20.70;;
40827;SDS011;26549;50.918;5.338;2022-12-18T03:54:00;35.60;;;18.65;;
40827;SDS011;26549;50.918;5.338;2022-12-18T03:56:31;36.95;;;18.60;;
40827;SDS011;26549;50.918;5.338;2022-12-18T03:59:03;37.80;;;18.33;;
40827;SDS011;26549;50.918;5.338;2022-12-18T04:01:35;37.97;;;18.23;;
40827;SDS011;26549;50.918;5.338;2022-12-18T04:04:07;36.42;;;17.02;;
40827;SDS011;26549;50.918;5.338;2022-12-18T04:06:35;37.03;;;19.25;;
40827;SDS011;26549;50.918;5.338;2022-12-18T04:09:05;36.92;;;19.23;;
40827;SDS011;26549;50.918;5.338;2022-12-18T04:11:32;35.35;;;17.35;;
40827;SDS011;26549;50.918;5.338;2022-12-18T04:13:58;33.10;;;16.33;;
40827;SDS011;26549;50.918;5.338;2022-12-18T04:16:25;39.08;;;18.95;;
40827;SDS011;26549;50.918;5.338;2022-12-18T04:18:51;35.47;;;17.85;;
40827;SDS011;26549;50.918;5.338;2022-12-18T04:21:17;29.02;;;16.17;;
40827;SDS011;26549;50.918;5.338;2022-12-18T04:23:44;29.00;;;16.95;;
40827;SDS011;26549;50.918;5.338;2022-12-18T04:26:12;37.67;;;18.25;;
40827;SDS011;26549;50.918;5.338;2022-12-18T04:28:38;39.65;;;19.02;;
40827;SDS011;26549;50.918;5.338;2022-12-18T04:31:04;39.72;;;19.23;;
40827;SDS011;26549;50.918;5.338;2022-12-18T04:33:30;33.00;;;17.45;;
40827;SDS011;26549;50.918;5.338;2022-12-18T04:35:56;40.92;;;19.08;;
40827;SDS011;26549;50.918;5.338;2022-12-18T04:38:23;40.47;;;20.27;;
40827;SDS011;26549;50.918;5.338;2022-12-18T04:40:48;40.08;;;18.48;;
40827;SDS011;26549;50.918;5.338;2022-12-18T04:43:15;29.83;;;16.08;;
40827;SDS011;26549;50.918;5.338;2022-12-18T04:45:42;39.15;;;20.52;;
40827;SDS011;26549;50.918;5.338;2022-12-18T04:48:08;32.15;;;16.63;;
40827;SDS011;26549;50.918;5.338;2022-12-18T04:50:33;33.47;;;16.08;;
40827;SDS011;26549;50.918;5.338;2022-12-18T04:52:59;33.42;;;18.30;;
40827;SDS011;26549;50.918;5.338;2022-12-18T04:55:25;34.90;;;16.83;;
40827;SDS011;26549;50.918;5.338;2022-12-18T04:57:52;35.13;;;17.95;;
40827;SDS011;26549;50.918;5.338;2022-12-18T05:00:19;30.88;;;15.55;;
40827;SDS011;26549;50.918;5.338;2022-12-18T05:02:45;34.85;;;16.73;;
40827;SDS011;26549;50.918;5.338;2022-12-18T05:05:11;33.80;;;17.98;;
40827;SDS011;26549;50.918;5.338;2022-12-18T05:07:37;36.42;;;18.27;;
40827;SDS011;26549;50.918;5.338;2022-12-18T05:10:03;28.20;;;15.38;;
40827;SDS011;26549;50.918;5.338;2022-12-18T05:12:31;31.83;;;17.42;;
40827;SDS011;26549;50.918;5.338;2022-12-18T05:14:57;28.30;;;15.32;;
40827;SDS011;26549;50.918;5.338;2022-12-18T05:17:22;28.88;;;16.63;;
40827;SDS011;26549;50.918;5.338;2022-12-18T05:19:50;33.60;;;19.13;;
40827;SDS011;26549;50.918;5.338;2022-12-18T05:22:18;32.35;;;16.52;;
40827;SDS011;26549;50.918;5.338;2022-12-18T05:24:45;31.52;;;17.20;;
40827;SDS011;26549;50.918;5.338;2022-12-18T05:27:10;32.55;;;17.40;;
40827;SDS011;26549;50.918;5.338;2022-12-18T05:29:36;38.53;;;19.33;;
40827;SDS011;26549;50.918;5.338;2022-12-18T05:32:02;30.60;;;15.73;;
40827;SDS011;26549;50.918;5.338;2022-12-18T05:34:28;30.73;;;15.40;;
40827;SDS011;26549;50.918;5.338;2022-12-18T05:36:53;24.08;;;14.40;;
40827;SDS011;26549;50.918;5.338;2022-12-18T05:39:20;27.27;;;16.95;;
40827;SDS011;26549;50.918;5.338;2022-12-18T05:41:47;27.83;;;16.33;;
40827;SDS011;26549;50.918;5.338;2022-12-18T05:44:14;37.83;;;16.38;;
40827;SDS011;26549;50.918;5.338;2022-12-18T05:46:40;36.03;;;14.93;;
40827;SDS011;26549;50.918;5.338;2022-12-18T05:49:07;33.53;;;14.85;;
40827;SDS011;26549;50.918;5.338;2022-12-18T05:51:39;29.25;;;15.90;;
40827;SDS011;26549;50.918;5.338;2022-12-18T05:54:04;27.48;;;13.88;;
40827;SDS011;26549;50.918;5.338;2022-12-18T05:56:30;27.05;;;15.52;;
40827;SDS011;26549;50.918;5.338;2022-12-18T05:58:56;30.67;;;15.80;;
40827;SDS011;26549;50.918;5.338;2022-12-18T06:01:24;32.10;;;16.35;;
40827;SDS011;26549;50.918;5.338;2022-12-18T06:03:52;30.65;;;14.68;;
40827;SDS011;26549;50.918;5.338;2022-12-18T06:08:46;27.27;;;14.52;;
40827;SDS011;26549;50.918;5.338;2022-12-18T06:11:16;25.55;;;13.70;;
40827;SDS011;26549;50.918;5.338;2022-12-18T06:13:43;28.45;;;16.73;;
40827;SDS011;26549;50.918;5.338;2022-12-18T06:16:11;28.42;;;14.25;;
40827;SDS011;26549;50.918;5.338;2022-12-18T06:18:37;24.00;;;13.30;;
40827;SDS011;26549;50.918;5.338;2022-12-18T06:21:03;24.75;;;14.88;;
40827;SDS011;26549;50.918;5.338;2022-12-18T06:23:29;23.33;;;13.85;;
40827;SDS011;26549;50.918;5.338;2022-12-18T06:25:54;21.73;;;12.77;;
40827;SDS011;26549;50.918;5.338;2022-12-18T06:28:21;22.13;;;12.77;;
40827;SDS011;26549;50.918;5.338;2022-12-18T06:30:47;25.67;;;12.80;;
40827;SDS011;26549;50.918;5.338;2022-12-18T06:33:14;24.65;;;12.70;;
40827;SDS011;26549;50.918;5.338;2022-12-18T06:35:41;24.58;;;12.90;;
40827;SDS011;26549;50.918;5.338;2022-12-18T06:38:09;24.65;;;12.60;;
40827;SDS011;26549;50.918;5.338;2022-12-18T06:40:43;22.38;;;11.75;;
40827;SDS011;26549;50.918;5.338;2022-12-18T06:43:11;24.23;;;11.98;;
40827;SDS011;26549;50.918;5.338;2022-12-18T06:45:41;20.38;;;12.60;;
40827;SDS011;26549;50.918;5.338;2022-12-18T06:48:09;19.92;;;11.38;;
40827;SDS011;26549;50.918;5.338;2022-12-18T06:50:35;23.73;;;12.88;;
40827;SDS011;26549;50.918;5.338;2022-12-18T06:53:02;20.58;;;11.48;;
40827;SDS011;26549;50.918;5.338;2022-12-18T06:55:28;24.70;;;10.65;;
40827;SDS011;26549;50.918;5.338;2022-12-18T06:57:54;21.60;;;11.45;;
40827;SDS011;26549;50.918;5.338;2022-12-18T07:00:20;22.70;;;11.35;;
40827;SDS011;26549;50.918;5.338;2022-12-18T07:02:48;18.13;;;10.98;;
40827;SDS011;26549;50.918;5.338;2022-12-18T07:05:17;18.83;;;11.32;;
40827;SDS011;26549;50.918;5.338;2022-12-18T07:07:43;19.40;;;11.77;;
40827;SDS011;26549;50.918;5.338;2022-12-18T07:10:10;22.52;;;11.00;;
40827;SDS011;26549;50.918;5.338;2022-12-18T07:12:36;19.00;;;11.05;;
40827;SDS011;26549;50.918;5.338;2022-12-18T07:15:05;19.10;;;10.38;;
40827;SDS011;26549;50.918;5.338;2022-12-18T07:17:31;21.00;;;9.98;;
40827;SDS011;26549;50.918;5.338;2022-12-18T07:19:58;23.10;;;11.80;;
40827;SDS011;26549;50.918;5.338;2022-12-18T07:22:27;16.83;;;10.15;;
40827;SDS011;26549;50.918;5.338;2022-12-18T07:24:52;18.13;;;11.13;;
40827;SDS011;26549;50.918;5.338;2022-12-18T07:27:19;18.80;;;10.80;;
40827;SDS011;26549;50.918;5.338;2022-12-18T07:29:45;17.60;;;10.45;;
40827;SDS011;26549;50.918;5.338;2022-12-18T07:32:12;17.63;;;11.02;;
40827;SDS011;26549;50.918;5.338;2022-12-18T07:34:40;20.45;;;11.00;;
40827;SDS011;26549;50.918;5.338;2022-12-18T07:37:08;18.90;;;9.57;;
40827;SDS011;26549;50.918;5.338;2022-12-18T07:39:34;20.75;;;10.63;;
40827;SDS011;26549;50.918;5.338;2022-12-18T07:42:00;17.42;;;10.07;;
40827;SDS011;26549;50.918;5.338;2022-12-18T07:44:44;22.70;;;10.65;;
40827;SDS011;26549;50.918;5.338;2022-12-18T07:47:17;15.63;;;9.40;;
40827;SDS011;26549;50.918;5.338;2022-12-18T07:49:43;17.05;;;9.90;;
40827;SDS011;26549;50.918;5.338;2022-12-18T07:52:11;18.52;;;10.70;;
40827;SDS011;26549;50.918;5.338;2022-12-18T07:54:43;18.75;;;10.68;;
40827;SDS011;26549;50.918;5.338;2022-12-18T07:59:56;15.23;;;9.90;;
40827;SDS011;26549;50.918;5.338;2022-12-18T08:05:21;21.77;;;11.15;;
40827;SDS011;26549;50.918;5.338;2022-12-18T08:07:55;15.15;;;10.18;;
40827;SDS011;26549;50.918;5.338;2022-12-18T08:10:21;17.40;;;9.52;;
40827;SDS011;26549;50.918;5.338;2022-12-18T08:12:52;18.95;;;10.43;;
40827;SDS011;26549;50.918;5.338;2022-12-18T08:15:17;16.98;;;10.25;;
40827;SDS011;26549;50.918;5.338;2022-12-18T08:17:47;15.95;;;9.68;;
40827;SDS011;26549;50.918;5.338;2022-12-18T08:20:13;17.00;;;9.80;;
40827;SDS011;26549;50.918;5.338;2022-12-18T08:22:40;14.52;;;10.07;;
40827;SDS011;26549;50.918;5.338;2022-12-18T08:25:10;17.05;;;10.23;;
40827;SDS011;26549;50.918;5.338;2022-12-18T08:27:36;15.32;;;8.23;;
40827;SDS011;26549;50.918;5.338;2022-12-18T08:30:03;14.85;;;9.85;;
40827;SDS011;26549;50.918;5.338;2022-12-18T08:32:32;17.35;;;9.40;;
40827;SDS011;26549;50.918;5.338;2022-12-18T08:34:58;17.23;;;8.05;;
40827;SDS011;26549;50.918;5.338;2022-12-18T08:37:24;15.43;;;10.07;;
40827;SDS011;26549;50.918;5.338;2022-12-18T08:39:50;19.65;;;9.25;;
40827;SDS011;26549;50.918;5.338;2022-12-18T08:42:16;16.17;;;9.60;;
40827;SDS011;26549;50.918;5.338;2022-12-18T08:45:00;17.33;;;9.45;;
40827;SDS011;26549;50.918;5.338;2022-12-18T08:47:26;15.02;;;8.95;;
40827;SDS011;26549;50.918;5.338;2022-12-18T08:49:52;20.17;;;10.70;;
40827;SDS011;26549;50.918;5.338;2022-12-18T08:52:18;16.20;;;9.65;;
40827;SDS011;26549;50.918;5.338;2022-12-18T08:54:44;15.77;;;9.68;;
40827;SDS011;26549;50.918;5.338;2022-12-18T08:57:09;17.23;;;10.48;;
40827;SDS011;26549;50.918;5.338;2022-12-18T08:59:35;19.17;;;11.23;;
40827;SDS011;26549;50.918;5.338;2022-12-18T09:02:01;19.80;;;10.05;;
40827;SDS011;26549;50.918;5.338;2022-12-18T09:04:26;16.58;;;10.13;;
40827;SDS011;26549;50.918;5.338;2022-12-18T09:06:55;18.33;;;10.52;;
40827;SDS011;26549;50.918;5.338;2022-12-18T09:09:21;17.90;;;10.27;;
40827;SDS011;26549;50.918;5.338;2022-12-18T09:11:47;14.75;;;9.15;;
40827;SDS011;26549;50.918;5.338;2022-12-18T09:14:12;16.55;;;9.18;;
40827;SDS011;26549;50.918;5.338;2022-12-18T09:16:38;21.63;;;10.25;;
40827;SDS011;26549;50.918;5.338;2022-12-18T09:19:05;13.43;;;9.07;;
40827;SDS011;26549;50.918;5.338;2022-12-18T09:21:32;12.18;;;8.75;;
40827;SDS011;26549;50.918;5.338;2022-12-18T09:23:59;21.67;;;10.20;;
40827;SDS011;26549;50.918;5.338;2022-12-18T09:26:25;16.75;;;9.73;;
40827;SDS011;26549;50.918;5.338;2022-12-18T09:28:52;12.77;;;8.30;;
40827;SDS011;26549;50.918;5.338;2022-12-18T09:31:20;12.48;;;8.90;;
40827;SDS011;26549;50.918;5.338;2022-12-18T09:33:47;19.33;;;9.63;;
40827;SDS011;26549;50.918;5.338;2022-12-18T09:36:14;16.38;;;9.85;;
40827;SDS011;26549;50.918;5.338;2022-12-18T09:38:41;13.80;;;8.85;;
40827;SDS011;26549;50.918;5.338;2022-12-18T09:44:22;18.38;;;11.05;;
40827;SDS011;26549;50.918;5.338;2022-12-18T09:47:17;18.65;;;9.23;;
40827;SDS011;26549;50.918;5.338;2022-12-18T09:52:43;19.27;;;10.10;;
40827;SDS011;26549;50.918;5.338;2022-12-18T09:55:16;19.38;;;10.07;;
40827;SDS011;26549;50.918;5.338;2022-12-18T09:58:36;18.98;;;9.95;;
40827;SDS011;26549;50.918;5.338;2022-12-18T10:00:42;20.90;;;11.07;;
40827;SDS011;26549;50.918;5.338;2022-12-18T10:03:09;18.38;;;11.02;;
40827;SDS011;26549;50.918;5.338;2022-12-18T10:08:56;15.40;;;10.23;;
40827;SDS011;26549;50.918;5.338;2022-12-18T10:11:27;14.98;;;8.90;;
40827;SDS011;26549;50.918;5.338;2022-12-18T10:14:30;18.70;;;10.30;;
40827;SDS011;26549;50.918;5.338;2022-12-18T10:19:55;16.77;;;10.73;;
40827;SDS011;26549;50.918;5.338;2022-12-18T10:25:15;18.05;;;10.48;;
40827;SDS011;26549;50.918;5.338;2022-12-18T10:27:45;18.13;;;10.60;;
40827;SDS011;26549;50.918;5.338;2022-12-18T10:30:12;20.42;;;11.88;;
40827;SDS011;26549;50.918;5.338;2022-12-18T10:32:40;14.20;;;10.07;;
40827;SDS011;26549;50.918;5.338;2022-12-18T10:35:16;19.45;;;10.93;;
40827;SDS011;26549;50.918;5.338;2022-12-18T10:43:31;22.67;;;11.85;;
40827;SDS011;26549;50.918;5.338;2022-12-18T10:48:34;21.77;;;12.30;;
40827;SDS011;26549;50.918;5.338;2022-12-18T10:51:03;19.50;;;11.65;;
40827;SDS011;26549;50.918;5.338;2022-12-18T10:53:32;16.60;;;11.10;;
40827;SDS011;26549;50.918;5.338;2022-12-18T10:56:02;20.98;;;12.48;;
40827;SDS011;26549;50.918;5.338;2022-12-18T10:58:32;18.17;;;11.70;;
40827;SDS011;26549;50.918;5.338;2022-12-18T11:03:40;14.70;;;10.20;;
40827;SDS011;26549;50.918;5.338;2022-12-18T11:06:16;17.58;;;10.90;;
40827;SDS011;26549;50.918;5.338;2022-12-18T11:11:48;15.95;;;10.23;;
40827;SDS011;26549;50.918;5.338;2022-12-18T11:14:24;18.10;;;10.05;;
40827;SDS011;26549;50.918;5.338;2022-12-18T11:16:52;18.70;;;11.05;;
40827;SDS011;26549;50.918;5.338;2022-12-18T11:19:21;15.70;;;10.15;;
40827;SDS011;26549;50.918;5.338;2022-12-18T11:21:52;14.90;;;10.50;;
40827;SDS011;26549;50.918;5.338;2022-12-18T11:24:31;15.90;;;9.77;;
40827;SDS011;26549;50.918;5.338;2022-12-18T11:27:00;18.92;;;12.70;;
40827;SDS011;26549;50.918;5.338;2022-12-18T11:29:31;18.40;;;9.80;;
40827;SDS011;26549;50.918;5.338;2022-12-18T11:37:41;18.30;;;10.57;;
40827;SDS011;26549;50.918;5.338;2022-12-18T11:40:14;17.65;;;10.27;;
40827;SDS011;26549;50.918;5.338;2022-12-18T11:42:54;15.02;;;10.80;;
40827;SDS011;26549;50.918;5.338;2022-12-18T11:45:49;17.23;;;9.88;;
40827;SDS011;26549;50.918;5.338;2022-12-18T11:49:18;18.80;;;10.82;;
40827;SDS011;26549;50.918;5.338;2022-12-18T11:54:26;18.58;;;9.82;;
40827;SDS011;26549;50.918;5.338;2022-12-18T11:56:56;18.15;;;11.10;;
40827;SDS011;26549;50.918;5.338;2022-12-18T12:08:04;15.35;;;8.60;;
40827;SDS011;26549;50.918;5.338;2022-12-18T12:10:58;18.27;;;10.13;;
40827;SDS011;26549;50.918;5.338;2022-12-18T12:16:22;20.27;;;10.40;;
40827;SDS011;26549;50.918;5.338;2022-12-18T12:19:17;16.15;;;10.63;;
40827;SDS011;26549;50.918;5.338;2022-12-18T12:30:49;19.25;;;10.63;;
40827;SDS011;26549;50.918;5.338;2022-12-18T12:33:42;18.67;;;10.77;;
40827;SDS011;26549;50.918;5.338;2022-12-18T12:39:16;17.80;;;11.65;;
40827;SDS011;26549;50.918;5.338;2022-12-18T12:41:46;20.33;;;10.75;;
40827;SDS011;26549;50.918;5.338;2022-12-18T12:44:53;15.68;;;10.18;;
40827;SDS011;26549;50.918;5.338;2022-12-18T12:47:21;19.25;;;12.57;;
40827;SDS011;26549;50.918;5.338;2022-12-18T12:49:59;17.83;;;9.80;;
40827;SDS011;26549;50.918;5.338;2022-12-18T12:52:32;17.95;;;11.27;;
40827;SDS011;26549;50.918;5.338;2022-12-18T12:55:04;19.60;;;11.95;;
40827;SDS011;26549;50.918;5.338;2022-12-18T12:57:38;17.30;;;11.48;;
40827;SDS011;26549;50.918;5.338;2022-12-18T13:05:25;20.90;;;10.15;;
40827;SDS011;26549;50.918;5.338;2022-12-18T13:08:04;19.00;;;11.88;;
40827;SDS011;26549;50.918;5.338;2022-12-18T13:10:33;22.95;;;13.98;;
40827;SDS011;26549;50.918;5.338;2022-12-18T13:15:38;20.83;;;12.10;;
40827;SDS011;26549;50.918;5.338;2022-12-18T13:20:44;20.65;;;12.68;;
40827;SDS011;26549;50.918;5.338;2022-12-18T13:23:31;21.40;;;11.82;;
40827;SDS011;26549;50.918;5.338;2022-12-18T13:31:12;20.05;;;11.82;;
40827;SDS011;26549;50.918;5.338;2022-12-18T13:33:40;20.08;;;12.63;;
40827;SDS011;26549;50.918;5.338;2022-12-18T13:36:15;20.13;;;11.18;;
40827;SDS011;26549;50.918;5.338;2022-12-18T13:41:43;20.02;;;11.55;;
40827;SDS011;26549;50.918;5.338;2022-12-18T13:47:01;17.65;;;12.35;;
40827;SDS011;26549;50.918;5.338;2022-12-18T13:49:35;23.67;;;12.00;;
40827;SDS011;26549;50.918;5.338;2022-12-18T13:52:03;20.88;;;12.55;;
40827;SDS011;26549;50.918;5.338;2022-12-18T13:54:45;23.27;;;12.75;;
40827;SDS011;26549;50.918;5.338;2022-12-18T13:57:26;21.95;;;13.15;;
40827;SDS011;26549;50.918;5.338;2022-12-18T14:00:00;20.08;;;11.40;;
40827;SDS011;26549;50.918;5.338;2022-12-18T14:02:44;22.80;;;14.48;;
40827;SDS011;26549;50.918;5.338;2022-12-18T14:05:27;22.40;;;13.30;;
40827;SDS011;26549;50.918;5.338;2022-12-18T14:08:01;25.10;;;12.88;;
40827;SDS011;26549;50.918;5.338;2022-12-18T14:10:31;28.35;;;14.95;;
40827;SDS011;26549;50.918;5.338;2022-12-18T14:12:57;20.98;;;14.57;;
40827;SDS011;26549;50.918;5.338;2022-12-18T14:15:31;20.83;;;12.02;;
40827;SDS011;26549;50.918;5.338;2022-12-18T14:18:00;20.85;;;12.63;;
40827;SDS011;26549;50.918;5.338;2022-12-18T14:20:33;21.95;;;13.20;;
40827;SDS011;26549;50.918;5.338;2022-12-18T14:22:59;20.17;;;13.00;;
40827;SDS011;26549;50.918;5.338;2022-12-18T14:25:26;26.80;;;13.55;;
40827;SDS011;26549;50.918;5.338;2022-12-18T14:28:02;17.10;;;11.73;;
40827;SDS011;26549;50.918;5.338;2022-12-18T14:33:14;18.40;;;10.88;;
40827;SDS011;26549;50.918;5.338;2022-12-18T14:35:56;21.55;;;11.50;;
40827;SDS011;26549;50.918;5.338;2022-12-18T14:38:30;19.95;;;11.77;;
40827;SDS011;26549;50.918;5.338;2022-12-18T14:41:04;18.00;;;11.10;;
40827;SDS011;26549;50.918;5.338;2022-12-18T14:43:32;19.08;;;13.50;;
40827;SDS011;26549;50.918;5.338;2022-12-18T14:46:00;21.15;;;12.23;;
40827;SDS011;26549;50.918;5.338;2022-12-18T14:51:00;22.00;;;12.15;;
40827;SDS011;26549;50.918;5.338;2022-12-18T14:53:40;20.77;;;12.67;;
40827;SDS011;26549;50.918;5.338;2022-12-18T14:56:16;20.95;;;12.30;;
40827;SDS011;26549;50.918;5.338;2022-12-18T14:58:46;21.33;;;12.43;;
40827;SDS011;26549;50.918;5.338;2022-12-18T15:01:23;19.02;;;11.27;;
40827;SDS011;26549;50.918;5.338;2022-12-18T15:03:49;21.17;;;12.73;;
40827;SDS011;26549;50.918;5.338;2022-12-18T15:06:36;23.80;;;12.40;;
40827;SDS011;26549;50.918;5.338;2022-12-18T15:09:05;25.38;;;11.40;;
40827;SDS011;26549;50.918;5.338;2022-12-18T15:11:46;20.25;;;13.85;;
40827;SDS011;26549;50.918;5.338;2022-12-18T15:14:32;21.17;;;12.23;;
40827;SDS011;26549;50.918;5.338;2022-12-18T15:17:00;23.00;;;12.88;;
40827;SDS011;26549;50.918;5.338;2022-12-18T15:19:38;22.95;;;12.82;;
40827;SDS011;26549;50.918;5.338;2022-12-18T15:22:20;19.92;;;12.88;;
40827;SDS011;26549;50.918;5.338;2022-12-18T15:24:46;25.20;;;13.07;;
40827;SDS011;26549;50.918;5.338;2022-12-18T15:27:35;22.77;;;14.57;;
40827;SDS011;26549;50.918;5.338;2022-12-18T15:32:41;23.45;;;14.15;;
40827;SDS011;26549;50.918;5.338;2022-12-18T15:37:36;26.52;;;14.40;;
40827;SDS011;26549;50.918;5.338;2022-12-18T15:40:03;25.40;;;15.32;;
40827;SDS011;26549;50.918;5.338;2022-12-18T15:42:29;27.52;;;16.15;;
40827;SDS011;26549;50.918;5.338;2022-12-18T15:45:14;23.08;;;13.68;;
40827;SDS011;26549;50.918;5.338;2022-12-18T15:47:41;24.48;;;14.60;;
40827;SDS011;26549;50.918;5.338;2022-12-18T15:50:07;24.58;;;14.18;;
40827;SDS011;26549;50.918;5.338;2022-12-18T15:52:36;22.13;;;14.23;;
40827;SDS011;26549;50.918;5.338;2022-12-18T15:55:11;24.45;;;13.98;;
40827;SDS011;26549;50.918;5.338;2022-12-18T15:58:00;22.35;;;13.73;;
40827;SDS011;26549;50.918;5.338;2022-12-18T16:00:25;25.70;;;12.88;;
40827;SDS011;26549;50.918;5.338;2022-12-18T16:02:52;21.15;;;12.40;;
40827;SDS011;26549;50.918;5.338;2022-12-18T16:05:18;18.73;;;11.40;;
40827;SDS011;26549;50.918;5.338;2022-12-18T16:07:45;18.77;;;11.23;;
40827;SDS011;26549;50.918;5.338;2022-12-18T16:10:11;19.58;;;11.98;;
40827;SDS011;26549;50.918;5.338;2022-12-18T16:12:37;22.92;;;12.32;;
40827;SDS011;26549;50.918;5.338;2022-12-18T16:15:04;22.25;;;12.38;;
40827;SDS011;26549;50.918;5.338;2022-12-18T16:17:30;24.13;;;11.40;;
40827;SDS011;26549;50.918;5.338;2022-12-18T16:19:56;21.67;;;12.07;;
40827;SDS011;26549;50.918;5.338;2022-12-18T16:22:26;22.77;;;14.30;;
40827;SDS011;26549;50.918;5.338;2022-12-18T16:24:53;27.35;;;12.43;;
40827;SDS011;26549;50.918;5.338;2022-12-18T16:27:21;21.88;;;12.30;;
40827;SDS011;26549;50.918;5.338;2022-12-18T16:29:48;22.35;;;12.32;;
40827;SDS011;26549;50.918;5.338;2022-12-18T16:32:15;27.45;;;14.77;;
40827;SDS011;26549;50.918;5.338;2022-12-18T16:34:43;22.52;;;13.02;;
40827;SDS011;26549;50.918;5.338;2022-12-18T16:37:10;21.30;;;11.98;;
40827;SDS011;26549;50.918;5.338;2022-12-18T16:39:38;20.38;;;12.77;;
40827;SDS011;26549;50.918;5.338;2022-12-18T16:42:06;22.73;;;12.40;;
40827;SDS011;26549;50.918;5.338;2022-12-18T16:44:42;24.35;;;13.57;;
40827;SDS011;26549;50.918;5.338;2022-12-18T16:47:08;22.13;;;11.82;;
40827;SDS011;26549;50.918;5.338;2022-12-18T16:49:34;22.85;;;13.30;;